sensor_id;sensor_type;location;lat;lon;timestamp;pressure;altitude;pressure_sealevel;temperature;humidity
75747;BME280;64363;52.198;21.020;2022-12-19T00:01:22;102751.66;;;-5.43;81.60
75747;BME280;64363;52.198;21.020;2022-12-19T00:03:48;102756.53;;;-5.48;81.83
75747;BME280;64363;52.198;21.020;2022-12-19T00:06:16;102755.31;;;-5.64;82.50
75747;BME280;64363;52.198;21.020;2022-12-19T00:08:43;102759.50;;;-5.55;82.49
75747;BME280;64363;52.198;21.020;2022-12-19T00:11:11;102759.38;;;-5.56;81.98
75747;BME280;64363;52.198;21.020;2022-12-19T00:13:38;102751.94;;;-5.63;82.28
75747;BME280;64363;52.198;21.020;2022-12-19T00:16:06;102745.13;;;-5.61;82.63
75747;BME280;64363;52.198;21.020;2022-12-19T00:18:32;102742.34;;;-5.64;81.92
75747;BME280;64363;52.198;21.020;2022-12-19T00:21:03;102746.59;;;-5.53;82.58
75747;BME280;64363;52.198;21.020;2022-12-19T00:23:31;102742.41;;;-5.51;82.28
75747;BME280;64363;52.198;21.020;2022-12-19T00:28:45;102747.44;;;-5.41;81.37
75747;BME280;64363;52.198;21.020;2022-12-19T00:31:13;102754.09;;;-5.70;81.52
75747;BME280;64363;52.198;21.020;2022-12-19T00:33:40;102753.66;;;-5.76;81.74
75747;BME280;64363;52.198;21.020;2022-12-19T00:36:10;102758.50;;;-5.69;82.07
75747;BME280;64363;52.198;21.020;2022-12-19T00:38:36;102747.94;;;-5.47;82.63
75747;BME280;64363;52.198;21.020;2022-12-19T00:41:07;102751.94;;;-5.27;83.94
75747;BME280;64363;52.198;21.020;2022-12-19T00:43:33;102755.50;;;-5.38;80.80
75747;BME280;64363;52.198;21.020;2022-12-19T00:46:08;102761.41;;;-5.52;81.37
75747;BME280;64363;52.198;21.020;2022-12-19T00:48:35;102757.34;;;-5.60;81.75
75747;BME280;64363;52.198;21.020;2022-12-19T00:51:03;102763.81;;;-5.67;82.14
75747;BME280;64363;52.198;21.020;2022-12-19T00:53:29;102762.16;;;-5.78;81.94
75747;BME280;64363;52.198;21.020;2022-12-19T00:55:55;102760.53;;;-5.64;82.11
75747;BME280;64363;52.198;21.020;2022-12-19T00:58:21;102762.91;;;-5.68;81.65
75747;BME280;64363;52.198;21.020;2022-12-19T01:00:47;102756.97;;;-5.53;82.22
75747;BME280;64363;52.198;21.020;2022-12-19T01:03:12;102752.78;;;-5.40;82.49
75747;BME280;64363;52.198;21.020;2022-12-19T01:05:38;102750.69;;;-5.32;82.11
75747;BME280;64363;52.198;21.020;2022-12-19T01:08:04;102746.94;;;-5.24;81.24
75747;BME280;64363;52.198;21.020;2022-12-19T01:10:30;102741.91;;;-5.34;80.69
75747;BME280;64363;52.198;21.020;2022-12-19T01:12:55;102746.13;;;-5.48;80.70
75747;BME280;64363;52.198;21.020;2022-12-19T01:15:21;102754.09;;;-5.70;81.39
75747;BME280;64363;52.198;21.020;2022-12-19T01:17:47;102753.66;;;-5.76;81.40
75747;BME280;64363;52.198;21.020;2022-12-19T01:20:16;102745.19;;;-5.85;81.92
75747;BME280;64363;52.198;21.020;2022-12-19T01:22:42;102746.44;;;-5.80;82.14
75747;BME280;64363;52.198;21.020;2022-12-19T01:25:08;102741.66;;;-5.98;82.30
75747;BME280;64363;52.198;21.020;2022-12-19T01:27:34;102735.22;;;-6.03;82.89
75747;BME280;64363;52.198;21.020;2022-12-19T01:30:00;102729.44;;;-5.88;82.70
75747;BME280;64363;52.198;21.020;2022-12-19T01:32:26;102719.69;;;-5.79;82.30
75747;BME280;64363;52.198;21.020;2022-12-19T01:34:52;102721.91;;;-5.72;82.83
75747;BME280;64363;52.198;21.020;2022-12-19T01:37:18;102718.97;;;-5.76;82.24
75747;BME280;64363;52.198;21.020;2022-12-19T01:39:44;102721.66;;;-5.63;82.46
75747;BME280;64363;52.198;21.020;2022-12-19T01:42:15;102712.97;;;-5.63;81.76
75747;BME280;64363;52.198;21.020;2022-12-19T01:50:24;102713.94;;;-5.50;81.27
75747;BME280;64363;52.198;21.020;2022-12-19T01:52:52;102716.59;;;-5.73;81.40
75747;BME280;64363;52.198;21.020;2022-12-19T01:55:19;102716.72;;;-5.72;82.09
75747;BME280;64363;52.198;21.020;2022-12-19T01:57:45;102709.75;;;-5.84;81.92
75747;BME280;64363;52.198;21.020;2022-12-19T02:00:12;102712.03;;;-5.89;82.06
75747;BME280;64363;52.198;21.020;2022-12-19T02:02:44;102705.44;;;-5.84;82.32
75747;BME280;64363;52.198;21.020;2022-12-19T02:05:13;102705.44;;;-5.84;82.13
75747;BME280;64363;52.198;21.020;2022-12-19T02:07:39;102705.44;;;-5.84;82.21
75747;BME280;64363;52.198;21.020;2022-12-19T02:10:06;102716.34;;;-6.01;82.35
75747;BME280;64363;52.198;21.020;2022-12-19T02:12:35;102712.97;;;-6.00;82.24
75747;BME280;64363;52.198;21.020;2022-12-19T02:15:02;102708.25;;;-6.17;83.17
75747;BME280;64363;52.198;21.020;2022-12-19T02:22:36;102710.53;;;-6.10;82.73
75747;BME280;64363;52.198;21.020;2022-12-19T02:30:16;102701.03;;;-5.98;82.60
75747;BME280;64363;52.198;21.020;2022-12-19T02:32:53;102697.41;;;-6.00;81.70
75747;BME280;64363;52.198;21.020;2022-12-19T02:35:32;102694.22;;;-5.96;81.99
75747;BME280;64363;52.198;21.020;2022-12-19T02:38:11;102691.22;;;-6.02;81.21
75747;BME280;64363;52.198;21.020;2022-12-19T02:40:55;102693.91;;;-6.12;81.62
75747;BME280;64363;52.198;21.020;2022-12-19T02:43:24;102694.81;;;-6.11;81.87
75747;BME280;64363;52.198;21.020;2022-12-19T02:45:52;102697.88;;;-6.17;82.20
75747;BME280;64363;52.198;21.020;2022-12-19T02:48:19;102679.72;;;-6.29;81.91
75747;BME280;64363;52.198;21.020;2022-12-19T02:50:46;102678.25;;;-6.25;82.19
75747;BME280;64363;52.198;21.020;2022-12-19T02:53:14;102687.47;;;-6.17;82.46
75747;BME280;64363;52.198;21.020;2022-12-19T03:03:59;102677.34;;;-6.37;82.25
75747;BME280;64363;52.198;21.020;2022-12-19T03:06:37;102673.75;;;-6.39;82.35
75747;BME280;64363;52.198;21.020;2022-12-19T03:11:56;102678.25;;;-6.48;82.75
75747;BME280;64363;52.198;21.020;2022-12-19T03:14:23;102677.81;;;-6.54;82.74
75747;BME280;64363;52.198;21.020;2022-12-19T03:16:51;102664.38;;;-6.60;83.33
75747;BME280;64363;52.198;21.020;2022-12-19T03:19:17;102670.59;;;-6.58;82.82
75747;BME280;64363;52.198;21.020;2022-12-19T03:21:46;102666.06;;;-6.73;83.35
75747;BME280;64363;52.198;21.020;2022-12-19T03:24:14;102665.38;;;-6.82;83.53
75747;BME280;64363;52.198;21.020;2022-12-19T03:26:46;102667.97;;;-6.82;83.66
75747;BME280;64363;52.198;21.020;2022-12-19T03:29:36;102671.38;;;-6.83;83.70
75747;BME280;64363;52.198;21.020;2022-12-19T03:32:08;102679.25;;;-6.93;83.34
75747;BME280;64363;52.198;21.020;2022-12-19T03:35:06;102673.06;;;-6.95;84.16
75747;BME280;64363;52.198;21.020;2022-12-19T03:37:37;102672.59;;;-7.01;84.03
75747;BME280;64363;52.198;21.020;2022-12-19T03:40:09;102662.00;;;-7.04;83.81
75747;BME280;64363;52.198;21.020;2022-12-19T03:42:38;102668.41;;;-7.11;83.99
75747;BME280;64363;52.198;21.020;2022-12-19T03:45:30;102658.34;;;-7.18;83.96
75747;BME280;64363;52.198;21.020;2022-12-19T03:48:04;102663.66;;;-7.16;84.59
75747;BME280;64363;52.198;21.020;2022-12-19T03:50:45;102668.63;;;-7.19;84.37
75747;BME280;64363;52.198;21.020;2022-12-19T03:58:44;102652.34;;;-7.28;83.97
75747;BME280;64363;52.198;21.020;2022-12-19T04:01:13;102653.94;;;-7.30;84.44
75747;BME280;64363;52.198;21.020;2022-12-19T04:03:39;102651.78;;;-7.36;84.41
75747;BME280;64363;52.198;21.020;2022-12-19T04:06:05;102648.75;;;-7.30;84.96
75747;BME280;64363;52.198;21.020;2022-12-19T04:08:32;102651.34;;;-7.30;84.31
75747;BME280;64363;52.198;21.020;2022-12-19T04:11:04;102645.69;;;-7.36;84.19
75747;BME280;64363;52.198;21.020;2022-12-19T04:13:36;102641.53;;;-7.34;84.96
75747;BME280;64363;52.198;21.020;2022-12-19T04:16:09;102625.66;;;-7.39;84.58
75747;BME280;64363;52.198;21.020;2022-12-19T04:18:39;102629.44;;;-7.45;84.88
75747;BME280;64363;52.198;21.020;2022-12-19T04:21:18;102624.81;;;-7.49;84.67
75747;BME280;64363;52.198;21.020;2022-12-19T04:23:49;102633.25;;;-7.52;84.64
75747;BME280;64363;52.198;21.020;2022-12-19T04:26:18;102627.41;;;-7.49;84.60
75747;BME280;64363;52.198;21.020;2022-12-19T04:28:50;102616.22;;;-7.60;84.49
75747;BME280;64363;52.198;21.020;2022-12-19T04:31:18;102613.28;;;-7.65;84.38
75747;BME280;64363;52.198;21.020;2022-12-19T04:33:45;102604.75;;;-7.64;84.83
75747;BME280;64363;52.198;21.020;2022-12-19T04:36:11;102602.47;;;-7.71;84.34
75747;BME280;64363;52.198;21.020;2022-12-19T04:38:37;102603.13;;;-7.73;84.24
75747;BME280;64363;52.198;21.020;2022-12-19T04:41:03;102592.13;;;-7.71;84.75
75747;BME280;64363;52.198;21.020;2022-12-19T04:43:29;102594.00;;;-7.80;84.85
75747;BME280;64363;52.198;21.020;2022-12-19T04:45:55;102598.03;;;-7.83;84.35
75747;BME280;64363;52.198;21.020;2022-12-19T04:48:21;102589.72;;;-7.79;84.95
75747;BME280;64363;52.198;21.020;2022-12-19T04:50:46;102581.66;;;-7.94;85.04
75747;BME280;64363;52.198;21.020;2022-12-19T04:53:12;102580.22;;;-7.90;85.00
75747;BME280;64363;52.198;21.020;2022-12-19T04:55:38;102580.41;;;-7.99;84.67
75747;BME280;64363;52.198;21.020;2022-12-19T04:58:06;102575.47;;;-7.96;85.12
75747;BME280;64363;52.198;21.020;2022-12-19T05:00:32;102570.06;;;-7.99;85.29
75747;BME280;64363;52.198;21.020;2022-12-19T05:02:58;102561.94;;;-8.03;84.99
75747;BME280;64363;52.198;21.020;2022-12-19T05:05:24;102565.53;;;-8.01;84.85
75747;BME280;64363;52.198;21.020;2022-12-19T05:07:50;102560.25;;;-8.03;84.79
75747;BME280;64363;52.198;21.020;2022-12-19T05:10:16;102569.47;;;-8.07;84.62
75747;BME280;64363;52.198;21.020;2022-12-19T05:12:42;102565.94;;;-8.19;85.02
75747;BME280;64363;52.198;21.020;2022-12-19T05:15:09;102570.44;;;-8.16;85.00
75747;BME280;64363;52.198;21.020;2022-12-19T05:17:35;102569.38;;;-8.18;84.42
75747;BME280;64363;52.198;21.020;2022-12-19T05:20:00;102576.69;;;-8.24;84.64
75747;BME280;64363;52.198;21.020;2022-12-19T05:22:27;102565.88;;;-8.30;84.82
75747;BME280;64363;52.198;21.020;2022-12-19T05:24:52;102574.19;;;-8.34;84.84
75747;BME280;64363;52.198;21.020;2022-12-19T05:27:18;102578.47;;;-8.35;85.22
75747;BME280;64363;52.198;21.020;2022-12-19T05:29:44;102567.47;;;-8.32;85.27
75747;BME280;64363;52.198;21.020;2022-12-19T05:32:09;102575.88;;;-8.35;84.86
75747;BME280;64363;52.198;21.020;2022-12-19T05:34:35;102572.94;;;-8.39;85.09
75747;BME280;64363;52.198;21.020;2022-12-19T05:37:01;102567.63;;;-8.41;84.87
75747;BME280;64363;52.198;21.020;2022-12-19T05:39:28;102569.53;;;-8.38;85.14
75747;BME280;64363;52.198;21.020;2022-12-19T05:41:54;102584.47;;;-8.46;84.25
75747;BME280;64363;52.198;21.020;2022-12-19T05:44:20;102573.25;;;-8.46;84.77
75747;BME280;64363;52.198;21.020;2022-12-19T05:46:46;102563.78;;;-8.46;84.60
75747;BME280;64363;52.198;21.020;2022-12-19T05:49:12;102565.13;;;-8.51;84.49
75747;BME280;64363;52.198;21.020;2022-12-19T05:51:38;102550.38;;;-8.52;84.89
75747;BME280;64363;52.198;21.020;2022-12-19T05:54:04;102554.09;;;-8.48;84.78
75747;BME280;64363;52.198;21.020;2022-12-19T05:56:29;102548.34;;;-8.66;84.81
75747;BME280;64363;52.198;21.020;2022-12-19T05:58:55;102542.84;;;-8.71;85.31
75747;BME280;64363;52.198;21.020;2022-12-19T06:01:24;102541.81;;;-8.73;85.40
75747;BME280;64363;52.198;21.020;2022-12-19T06:03:51;102535.69;;;-8.63;85.46
75747;BME280;64363;52.198;21.020;2022-12-19T06:06:20;102537.16;;;-8.67;85.23
75747;BME280;64363;52.198;21.020;2022-12-19T06:08:46;102547.22;;;-8.70;84.80
75747;BME280;64363;52.198;21.020;2022-12-19T06:11:13;102559.59;;;-8.66;85.22
75747;BME280;64363;52.198;21.020;2022-12-19T06:13:39;102549.53;;;-8.63;84.56
75747;BME280;64363;52.198;21.020;2022-12-19T06:16:13;102553.28;;;-8.69;84.28
75747;BME280;64363;52.198;21.020;2022-12-19T06:18:39;102554.69;;;-8.63;84.20
75747;BME280;64363;52.198;21.020;2022-12-19T06:21:10;102555.78;;;-8.71;84.62
75747;BME280;64363;52.198;21.020;2022-12-19T06:23:36;102562.88;;;-8.78;84.16
75747;BME280;64363;52.198;21.020;2022-12-19T06:26:04;102563.56;;;-8.81;84.39
75747;BME280;64363;52.198;21.020;2022-12-19T06:28:31;102563.25;;;-8.74;84.39
75747;BME280;64363;52.198;21.020;2022-12-19T06:30:59;102552.44;;;-8.80;84.31
75747;BME280;64363;52.198;21.020;2022-12-19T06:33:26;102555.66;;;-8.82;84.63
75747;BME280;64363;52.198;21.020;2022-12-19T06:36:02;102559.53;;;-8.77;84.33
75747;BME280;64363;52.198;21.020;2022-12-19T06:38:29;102559.66;;;-8.76;84.98
75747;BME280;64363;52.198;21.020;2022-12-19T06:40:55;102567.91;;;-8.70;84.78
75747;BME280;64363;52.198;21.020;2022-12-19T06:43:40;102569.16;;;-8.65;84.81
75747;BME280;64363;52.198;21.020;2022-12-19T06:46:06;102569.69;;;-8.59;84.53
75747;BME280;64363;52.198;21.020;2022-12-19T06:48:32;102574.47;;;-8.63;84.24
75747;BME280;64363;52.198;21.020;2022-12-19T06:50:58;102569.94;;;-8.66;84.07
75747;BME280;64363;52.198;21.020;2022-12-19T06:53:24;102572.00;;;-8.62;83.76
75747;BME280;64363;52.198;21.020;2022-12-19T06:55:52;102568.94;;;-8.68;84.04
75747;BME280;64363;52.198;21.020;2022-12-19T06:58:18;102572.81;;;-8.63;84.35
75747;BME280;64363;52.198;21.020;2022-12-19T07:00:44;102557.63;;;-8.58;84.05
75747;BME280;64363;52.198;21.020;2022-12-19T07:03:12;102533.22;;;-8.62;84.02
75747;BME280;64363;52.198;21.020;2022-12-19T07:05:40;102560.84;;;-8.50;84.32
75747;BME280;64363;52.198;21.020;2022-12-19T07:08:09;102563.66;;;-8.47;83.25
75747;BME280;64363;52.198;21.020;2022-12-19T07:10:35;102557.28;;;-8.41;83.08
75747;BME280;64363;52.198;21.020;2022-12-19T07:13:01;102560.84;;;-8.50;83.11
75747;BME280;64363;52.198;21.020;2022-12-19T07:15:29;102555.69;;;-8.50;82.74
75747;BME280;64363;52.198;21.020;2022-12-19T07:17:57;102562.09;;;-8.45;83.19
75747;BME280;64363;52.198;21.020;2022-12-19T07:20:24;102564.94;;;-8.42;83.09
75747;BME280;64363;52.198;21.020;2022-12-19T07:22:50;102561.44;;;-8.43;83.23
75747;BME280;64363;52.198;21.020;2022-12-19T07:25:16;102539.34;;;-8.49;82.84
75747;BME280;64363;52.198;21.020;2022-12-19T07:27:43;102562.97;;;-8.35;82.68
75747;BME280;64363;52.198;21.020;2022-12-19T07:30:10;102555.06;;;-8.36;82.96
75747;BME280;64363;52.198;21.020;2022-12-19T07:32:36;102562.50;;;-8.29;82.48
75747;BME280;64363;52.198;21.020;2022-12-19T07:35:07;102557.66;;;-8.25;82.57
75747;BME280;64363;52.198;21.020;2022-12-19T07:37:33;102551.59;;;-8.25;81.95
75747;BME280;64363;52.198;21.020;2022-12-19T07:39:58;102546.31;;;-8.27;82.24
75747;BME280;64363;52.198;21.020;2022-12-19T07:42:24;102548.59;;;-8.20;81.72
75747;BME280;64363;52.198;21.020;2022-12-19T07:44:50;102549.97;;;-8.13;81.52
75747;BME280;64363;52.198;21.020;2022-12-19T07:47:16;102552.19;;;-8.18;81.77
75747;BME280;64363;52.198;21.020;2022-12-19T07:49:42;102554.13;;;-8.15;82.01
75747;BME280;64363;52.198;21.020;2022-12-19T07:52:08;102555.38;;;-8.10;81.80
75747;BME280;64363;52.198;21.020;2022-12-19T07:54:34;102550.69;;;-8.04;81.26
75747;BME280;64363;52.198;21.020;2022-12-19T07:57:00;102555.84;;;-8.04;81.87
75747;BME280;64363;52.198;21.020;2022-12-19T07:59:27;102536.28;;;-8.00;81.11
75747;BME280;64363;52.198;21.020;2022-12-19T08:01:52;102543.84;;;-7.92;81.62
75747;BME280;64363;52.198;21.020;2022-12-19T08:04:19;102546.44;;;-7.92;81.36
75747;BME280;64363;52.198;21.020;2022-12-19T08:06:44;102547.16;;;-7.83;81.05
75747;BME280;64363;52.198;21.020;2022-12-19T10:13:45;102319.88;;;-3.00;63.85
75747;BME280;64363;52.198;21.020;2022-12-19T10:22:23;102306.81;;;-5.08;68.79
75747;BME280;64363;52.198;21.020;2022-12-19T10:31:08;102309.59;;;-5.33;69.41
75747;BME280;64363;52.198;21.020;2022-12-19T12:40:30;102089.97;;;-4.05;68.60
75747;BME280;64363;52.198;21.020;2022-12-19T17:29:08;101701.91;;;-5.08;78.28
75747;BME280;64363;52.198;21.020;2022-12-19T17:31:35;101703.72;;;-4.89;78.02
75747;BME280;64363;52.198;21.020;2022-12-19T17:34:29;101691.31;;;-4.95;77.23
75747;BME280;64363;52.198;21.020;2022-12-19T17:36:56;101700.56;;;-4.84;76.42
75747;BME280;64363;52.198;21.020;2022-12-19T17:39:26;101682.53;;;-4.97;76.65
75747;BME280;64363;52.198;21.020;2022-12-19T17:41:54;101683.53;;;-4.95;77.29
75747;BME280;64363;52.198;21.020;2022-12-19T17:44:21;101692.63;;;-4.87;76.89
75747;BME280;64363;52.198;21.020;2022-12-19T17:46:47;101692.03;;;-4.97;76.63
75747;BME280;64363;52.198;21.020;2022-12-19T17:49:26;101689.38;;;-4.99;77.16
75747;BME280;64363;52.198;21.020;2022-12-19T17:51:52;101692.88;;;-4.98;77.29
75747;BME280;64363;52.198;21.020;2022-12-19T17:54:19;101677.50;;;-4.94;76.92
75747;BME280;64363;52.198;21.020;2022-12-19T17:56:46;101678.47;;;-4.92;77.08
75747;BME280;64363;52.198;21.020;2022-12-19T17:59:12;101680.50;;;-4.86;77.76
75747;BME280;64363;52.198;21.020;2022-12-19T18:01:39;101679.25;;;-4.77;77.21
75747;BME280;64363;52.198;21.020;2022-12-19T18:04:13;101678.94;;;-4.83;77.58
75747;BME280;64363;52.198;21.020;2022-12-19T18:06:39;101682.69;;;-4.78;76.77
75747;BME280;64363;52.198;21.020;2022-12-19T18:09:20;101675.31;;;-4.68;76.68
75747;BME280;64363;52.198;21.020;2022-12-19T18:11:47;101669.63;;;-4.61;77.22
75747;BME280;64363;52.198;21.020;2022-12-19T18:14:14;101677.34;;;-4.63;76.78
75747;BME280;64363;52.198;21.020;2022-12-19T18:16:40;101668.72;;;-4.62;76.35
75747;BME280;64363;52.198;21.020;2022-12-19T18:19:14;101668.25;;;-4.71;76.85
75747;BME280;64363;52.198;21.020;2022-12-19T18:21:42;101662.47;;;-4.65;76.54
75747;BME280;64363;52.198;21.020;2022-12-19T18:24:11;101653.69;;;-4.67;76.64
75747;BME280;64363;52.198;21.020;2022-12-19T18:26:37;101657.88;;;-4.53;76.64
75747;BME280;64363;52.198;21.020;2022-12-19T18:29:03;101655.47;;;-4.49;76.38
75747;BME280;64363;52.198;21.020;2022-12-19T18:31:29;101651.78;;;-4.36;76.13
75747;BME280;64363;52.198;21.020;2022-12-19T18:33:55;101640.31;;;-4.40;75.77
75747;BME280;64363;52.198;21.020;2022-12-19T18:36:24;101639.16;;;-4.46;76.25
75747;BME280;64363;52.198;21.020;2022-12-19T18:38:50;101629.31;;;-4.34;76.49
75747;BME280;64363;52.198;21.020;2022-12-19T18:41:18;101640.78;;;-4.31;76.29
75747;BME280;64363;52.198;21.020;2022-12-19T18:43:44;101628.19;;;-4.21;76.49
75747;BME280;64363;52.198;21.020;2022-12-19T18:46:15;101633.47;;;-4.20;75.67
75747;BME280;64363;52.198;21.020;2022-12-19T18:48:42;101625.22;;;-4.29;75.59
75747;BME280;64363;52.198;21.020;2022-12-19T18:51:16;101621.78;;;-4.28;75.49
75747;BME280;64363;52.198;21.020;2022-12-19T18:53:43;101621.34;;;-4.37;75.68
75747;BME280;64363;52.198;21.020;2022-12-19T18:56:10;101624.13;;;-4.34;76.26
75747;BME280;64363;52.198;21.020;2022-12-19T18:58:35;101619.50;;;-4.22;76.42
75747;BME280;64363;52.198;21.020;2022-12-19T19:01:03;101614.56;;;-4.16;76.64
75747;BME280;64363;52.198;21.020;2022-12-19T19:03:39;101608.91;;;-4.07;75.87
75747;BME280;64363;52.198;21.020;2022-12-19T19:06:25;101612.88;;;-3.96;75.98
75747;BME280;64363;52.198;21.020;2022-12-19T19:08:51;101610.22;;;-3.98;75.21
75747;BME280;64363;52.198;21.020;2022-12-19T19:11:18;101600.50;;;-4.02;75.36
75747;BME280;64363;52.198;21.020;2022-12-19T19:13:48;101593.25;;;-3.90;76.61
75747;BME280;64363;52.198;21.020;2022-12-19T19:16:21;101587.88;;;-3.93;75.77
75747;BME280;64363;52.198;21.020;2022-12-19T19:18:52;101585.59;;;-3.85;75.42
75747;BME280;64363;52.198;21.020;2022-12-19T19:21:23;101578.78;;;-3.83;75.42
75747;BME280;64363;52.198;21.020;2022-12-19T19:23:53;101577.44;;;-3.93;74.82
75747;BME280;64363;52.198;21.020;2022-12-19T19:26:20;101580.13;;;-3.91;75.20
75747;BME280;64363;52.198;21.020;2022-12-19T19:28:46;101574.16;;;-3.89;76.06
75747;BME280;64363;52.198;21.020;2022-12-19T19:31:13;101555.94;;;-3.89;75.10
75747;BME280;64363;52.198;21.020;2022-12-19T19:33:44;101561.69;;;-3.77;75.54
75747;BME280;64363;52.198;21.020;2022-12-19T19:36:14;101559.97;;;-3.76;76.15
75747;BME280;64363;52.198;21.020;2022-12-19T19:38:44;101560.88;;;-3.75;75.04
75747;BME280;64363;52.198;21.020;2022-12-19T19:41:11;101562.13;;;-3.87;74.81
75747;BME280;64363;52.198;21.020;2022-12-19T19:43:37;101547.06;;;-3.73;75.17
75747;BME280;64363;52.198;21.020;2022-12-19T19:46:03;101550.25;;;-3.80;74.81
75747;BME280;64363;52.198;21.020;2022-12-19T19:48:29;101527.47;;;-3.84;75.28
75747;BME280;64363;52.198;21.020;2022-12-19T19:50:55;101536.72;;;-3.71;74.76
75747;BME280;64363;52.198;21.020;2022-12-19T19:53:21;101536.59;;;-3.74;75.15
75747;BME280;64363;52.198;21.020;2022-12-19T19:55:57;101536.13;;;-3.66;75.88
75747;BME280;64363;52.198;21.020;2022-12-19T19:58:25;101541.53;;;-3.61;74.96
75747;BME280;64363;52.198;21.020;2022-12-19T20:00:51;101544.88;;;-3.64;74.82
75747;BME280;64363;52.198;21.020;2022-12-19T20:03:18;101539.41;;;-3.70;76.35
75747;BME280;64363;52.198;21.020;2022-12-19T20:05:45;101534.66;;;-3.59;74.78
75747;BME280;64363;52.198;21.020;2022-12-19T20:08:11;101532.19;;;-3.56;74.69
75747;BME280;64363;52.198;21.020;2022-12-19T20:10:37;101528.19;;;-3.48;75.03
75747;BME280;64363;52.198;21.020;2022-12-19T20:13:03;101531.31;;;-3.36;74.56
75747;BME280;64363;52.198;21.020;2022-12-19T20:15:28;101524.41;;;-3.36;74.50
75747;BME280;64363;52.198;21.020;2022-12-19T20:17:55;101520.41;;;-3.27;73.63
75747;BME280;64363;52.198;21.020;2022-12-19T20:20:20;101526.09;;;-3.36;74.11
75747;BME280;64363;52.198;21.020;2022-12-19T20:22:46;101530.09;;;-3.25;74.57
75747;BME280;64363;52.198;21.020;2022-12-19T20:25:12;101522.63;;;-3.16;74.97
75747;BME280;64363;52.198;21.020;2022-12-19T20:27:38;101507.16;;;-3.11;74.69
75747;BME280;64363;52.198;21.020;2022-12-19T20:30:04;101510.59;;;-2.92;75.08
75747;BME280;64363;52.198;21.020;2022-12-19T20:32:31;101499.44;;;-2.88;73.84
75747;BME280;64363;52.198;21.020;2022-12-19T20:34:57;101490.63;;;-2.91;73.87
75747;BME280;64363;52.198;21.020;2022-12-19T20:37:23;101492.00;;;-2.78;72.91
75747;BME280;64363;52.198;21.020;2022-12-19T20:39:50;101490.31;;;-2.76;72.31
75747;BME280;64363;52.198;21.020;2022-12-19T20:42:16;101490.81;;;-2.87;71.84
75747;BME280;64363;52.198;21.020;2022-12-19T20:44:41;101485.78;;;-3.03;72.72
75747;BME280;64363;52.198;21.020;2022-12-19T20:47:07;101481.59;;;-2.99;73.42
75747;BME280;64363;52.198;21.020;2022-12-19T20:49:33;101484.97;;;-3.02;73.21
75747;BME280;64363;52.198;21.020;2022-12-19T20:51:59;101477.25;;;-2.99;73.54
75747;BME280;64363;52.198;21.020;2022-12-19T20:54:24;101479.41;;;-2.89;72.79
75747;BME280;64363;52.198;21.020;2022-12-19T20:56:51;101482.66;;;-2.94;72.73
75747;BME280;64363;52.198;21.020;2022-12-19T20:59:17;101480.97;;;-2.94;73.31
75747;BME280;64363;52.198;21.020;2022-12-19T21:01:43;101472.53;;;-2.87;73.87
75747;BME280;64363;52.198;21.020;2022-12-19T21:04:09;101465.63;;;-2.85;72.77
75747;BME280;64363;52.198;21.020;2022-12-19T21:06:35;101465.78;;;-2.81;73.44
75747;BME280;64363;52.198;21.020;2022-12-19T21:09:03;101467.63;;;-2.79;73.35
75747;BME280;64363;52.198;21.020;2022-12-19T21:11:29;101469.28;;;-2.59;73.45
75747;BME280;64363;52.198;21.020;2022-12-19T21:13:55;101464.97;;;-2.58;73.19
75747;BME280;64363;52.198;21.020;2022-12-19T21:16:21;101449.19;;;-2.61;72.20
75747;BME280;64363;52.198;21.020;2022-12-19T21:18:48;101456.53;;;-2.51;72.72
75747;BME280;64363;52.198;21.020;2022-12-19T21:21:17;101447.91;;;-2.49;71.85
75747;BME280;64363;52.198;21.020;2022-12-19T21:23:43;101444.53;;;-2.46;72.60
75747;BME280;64363;52.198;21.020;2022-12-19T21:26:09;101440.03;;;-2.50;71.72
75747;BME280;64363;52.198;21.020;2022-12-19T21:28:36;101439.31;;;-2.46;72.89
75747;BME280;64363;52.198;21.020;2022-12-19T21:31:05;101430.97;;;-2.36;72.65
75747;BME280;64363;52.198;21.020;2022-12-19T21:33:32;101431.25;;;-2.52;72.38
75747;BME280;64363;52.198;21.020;2022-12-19T21:36:11;101435.41;;;-2.57;72.10
75747;BME280;64363;52.198;21.020;2022-12-19T21:38:38;101429.41;;;-2.55;72.72
75747;BME280;64363;52.198;21.020;2022-12-19T21:41:05;101424.00;;;-2.59;73.25
75747;BME280;64363;52.198;21.020;2022-12-19T21:43:35;101425.72;;;-2.60;74.24
75747;BME280;64363;52.198;21.020;2022-12-19T21:46:06;101411.53;;;-2.44;74.59
75747;BME280;64363;52.198;21.020;2022-12-19T21:48:35;101406.13;;;-2.49;75.32
75747;BME280;64363;52.198;21.020;2022-12-19T21:51:01;101401.97;;;-2.44;74.68
75747;BME280;64363;52.198;21.020;2022-12-19T21:53:26;101396.72;;;-2.45;74.97
75747;BME280;64363;52.198;21.020;2022-12-19T21:55:52;101389.19;;;-2.36;74.71
75747;BME280;64363;52.198;21.020;2022-12-19T21:58:25;101387.00;;;-2.25;74.93
75747;BME280;64363;52.198;21.020;2022-12-19T22:00:51;101382.31;;;-2.34;74.35
75747;BME280;64363;52.198;21.020;2022-12-19T22:03:16;101378.75;;;-2.36;74.99
75747;BME280;64363;52.198;21.020;2022-12-19T22:05:42;101370.00;;;-2.38;74.62
75747;BME280;64363;52.198;21.020;2022-12-19T22:08:08;101366.91;;;-2.26;75.08
75747;BME280;64363;52.198;21.020;2022-12-19T22:10:37;101350.28;;;-2.28;76.35
75747;BME280;64363;52.198;21.020;2022-12-19T22:13:03;101352.03;;;-2.29;75.54
75747;BME280;64363;52.198;21.020;2022-12-19T22:15:29;101340.97;;;-2.22;76.40
75747;BME280;64363;52.198;21.020;2022-12-19T22:17:54;101337.72;;;-2.15;77.43
75747;BME280;64363;52.198;21.020;2022-12-19T22:20:20;101337.53;;;-2.21;76.55
75747;BME280;64363;52.198;21.020;2022-12-19T22:22:46;101335.84;;;-2.19;75.72
75747;BME280;64363;52.198;21.020;2022-12-19T22:25:11;101344.75;;;-2.14;76.08
75747;BME280;64363;52.198;21.020;2022-12-19T22:27:37;101336.19;;;-2.10;76.71
75747;BME280;64363;52.198;21.020;2022-12-19T22:30:03;101331.78;;;-2.11;75.89